Woodlawn, Tennessee
Current Conditions -  °F | °C
As of 5:01 AM on Monday 22 Dec 2014 (Local Time) from KCKV Reporting Station
Overcast Overcast  
Wind Chill:   Ceiling: 2600
Heat Index:   Visibility: 9mi
Dew Point:   Wind: 7mph
Humidity: 93%   Direction: 140°SE
Pressure: 29.92"   Gusts: NA
Location:  36.54°N, 87.51°W
Report Text: KCKV 221101Z AUTO 14006KT 9SM BKN026 OVC100 06/05 A2992 RMK AO2 T00610050
Loading
Personal Weather Stations






























Interactive Weather Map New forecast layout! Learn more

10-Day Weather Forecast

Advertisements
Track Severe Weather on mobile